Terminal Aerodrome Forecast
Issued by NWS Lake Charles, LA

Home | Current Version | Previous Version | Text Only | Print | Product List | Glossary On
Versions: 1 2 3 4 5 6 7 8 9 10 11 12 13 14 15 16
000
FTUS44 KLCH 041512 AAA
TAFARA
TAF AMD
KARA 041512Z 0415/0512 21008KT P6SM VCTS SCT035CB OVC250
      TEMPO 0415/0417 VRB10G30KT TSRA BKN030CB
     FM050200 VRB03KT P6SM OVC250=

USA.gov is the U.S. government's official web portal to all federal, state and local government web resources and services.